createdAt,value
2022-10-26T00:01:09.848Z,15.18
2022-10-26T00:03:38.450Z,15.02
2022-10-26T00:06:10.156Z,15.07
2022-10-26T00:08:38.101Z,14.81
2022-10-26T00:11:06.544Z,15.08
2022-10-26T00:13:34.651Z,15.03
2022-10-26T00:16:07.999Z,14.94
2022-10-26T00:18:35.558Z,15.10
2022-10-26T00:21:04.914Z,15.06
2022-10-26T00:23:32.800Z,15.17
2022-10-26T00:26:00.414Z,15.26
2022-10-26T00:28:28.273Z,15.26
2022-10-26T00:30:55.749Z,15.07
2022-10-26T00:33:23.156Z,15.14
2022-10-26T00:35:54.302Z,15.21
2022-10-26T00:38:21.956Z,15.14
2022-10-26T00:40:49.864Z,15.21
2022-10-26T00:43:20.525Z,15.19
2022-10-26T00:45:49.909Z,15.29
2022-10-26T00:48:23.876Z,15.00
2022-10-26T00:50:52.138Z,15.09
2022-10-26T00:53:20.115Z,15.24
2022-10-26T00:55:50.003Z,15.23
2022-10-26T00:58:18.147Z,15.26
2022-10-26T01:00:45.996Z,15.21
2022-10-26T01:03:13.511Z,15.08
2022-10-26T01:05:42.442Z,14.89
2022-10-26T01:08:10.587Z,14.50
2022-10-26T01:10:39.065Z,14.72
2022-10-26T01:13:06.597Z,14.60
2022-10-26T01:15:50.255Z,14.59
2022-10-26T01:18:35.530Z,14.75
2022-10-26T01:21:24.338Z,14.68
2022-10-26T01:24:11.297Z,14.72
2022-10-26T01:26:57.811Z,14.71
2022-10-26T01:29:59.564Z,14.63
2022-10-26T01:32:32.169Z,14.60
2022-10-26T01:35:11.661Z,14.64
2022-10-26T01:37:46.020Z,14.68
2022-10-26T01:40:21.840Z,14.69
2022-10-26T01:42:54.791Z,14.74
2022-10-26T01:45:22.477Z,14.73
2022-10-26T01:47:51.612Z,14.59
2022-10-26T01:50:19.940Z,14.75
2022-10-26T01:52:50.838Z,14.64
2022-10-26T01:55:43.554Z,14.58
2022-10-26T01:58:36.005Z,14.31
2022-10-26T02:01:30.114Z,14.24
2022-10-26T02:04:11.200Z,14.37
2022-10-26T02:06:49.260Z,14.44
2022-10-26T02:09:32.528Z,14.61
2022-10-26T02:12:03.496Z,14.64
2022-10-26T02:14:52.168Z,14.60
2022-10-26T02:17:32.458Z,14.70
2022-10-26T02:20:04.377Z,14.63
2022-10-26T02:22:44.577Z,14.70
2022-10-26T02:25:17.976Z,14.53
2022-10-26T02:27:48.244Z,14.61
2022-10-26T02:30:16.510Z,14.57
2022-10-26T02:32:48.803Z,14.40
2022-10-26T02:35:17.615Z,14.34
2022-10-26T02:37:47.041Z,14.05
2022-10-26T02:40:18.553Z,14.28
2022-10-26T02:42:46.964Z,14.30
2022-10-26T02:45:19.209Z,14.33
2022-10-26T02:47:47.426Z,14.42
2022-10-26T02:50:15.418Z,14.28
2022-10-26T02:52:52.469Z,14.38
2022-10-26T02:55:25.989Z,14.42
2022-10-26T02:58:00.771Z,14.49
2022-10-26T03:00:29.715Z,14.53
2022-10-26T03:02:58.952Z,14.34
2022-10-26T03:05:28.088Z,14.19
2022-10-26T03:07:56.349Z,14.42
2022-10-26T03:10:23.980Z,14.47
2022-10-26T03:12:52.367Z,14.23
2022-10-26T03:15:20.368Z,14.34
2022-10-26T03:17:48.139Z,14.45
2022-10-26T03:20:16.163Z,14.55
2022-10-26T03:22:43.896Z,14.60
2022-10-26T03:25:11.382Z,14.68
2022-10-26T03:27:39.051Z,14.68
2022-10-26T03:30:07.407Z,14.71
2022-10-26T03:32:34.864Z,14.72
2022-10-26T03:35:02.305Z,14.39
2022-10-26T03:37:30.047Z,13.98
2022-10-26T03:39:57.467Z,13.89
2022-10-26T03:42:24.865Z,13.89
2022-10-26T03:44:52.565Z,13.84
2022-10-26T03:47:19.978Z,13.55
2022-10-26T03:49:47.369Z,13.61
2022-10-26T03:52:15.077Z,13.52
2022-10-26T03:54:42.546Z,13.43
2022-10-26T03:57:09.980Z,13.16
2022-10-26T03:59:37.681Z,13.12
2022-10-26T04:02:05.146Z,13.37
2022-10-26T04:04:32.907Z,13.37
2022-10-26T04:07:00.423Z,13.37
2022-10-26T04:09:27.848Z,13.55
2022-10-26T04:11:55.615Z,13.71
2022-10-26T04:14:23.082Z,13.93
2022-10-26T04:16:50.464Z,13.64
2022-10-26T04:19:18.161Z,14.07
2022-10-26T04:21:45.576Z,14.30
2022-10-26T04:24:13.089Z,14.41
2022-10-26T04:26:40.777Z,14.06
2022-10-26T04:29:09.236Z,14.32
2022-10-26T04:31:36.675Z,14.36
2022-10-26T04:34:04.475Z,14.29
2022-10-26T04:36:31.917Z,14.14
2022-10-26T04:38:59.373Z,14.15
2022-10-26T04:41:27.210Z,14.18
2022-10-26T04:43:54.708Z,14.27
2022-10-26T04:46:22.090Z,14.29
2022-10-26T04:48:49.810Z,14.13
2022-10-26T04:51:17.429Z,14.19
2022-10-26T04:53:44.840Z,14.05
2022-10-26T04:56:12.583Z,14.24
2022-10-26T04:58:40.032Z,14.04
2022-10-26T05:01:07.512Z,14.09
2022-10-26T05:03:35.267Z,14.19
2022-10-26T05:06:02.707Z,14.34
2022-10-26T05:08:30.133Z,14.19
2022-10-26T05:10:57.880Z,14.13
2022-10-26T05:15:57.929Z,14.58
2022-10-26T05:18:26.356Z,14.64
2022-10-26T05:20:53.980Z,14.74
2022-10-26T05:23:22.400Z,14.80
2022-10-26T05:25:49.884Z,14.82
2022-10-26T05:28:17.610Z,14.88
2022-10-26T05:30:46.391Z,14.95
2022-10-26T05:33:14.746Z,14.85
2022-10-26T05:35:42.213Z,14.88
2022-10-26T05:38:11.377Z,15.00
2022-10-26T05:40:38.888Z,14.98
2022-10-26T05:43:06.365Z,15.03
2022-10-26T05:45:34.106Z,14.97
2022-10-26T05:48:02.793Z,14.82
2022-10-26T05:50:30.794Z,14.73
2022-10-26T05:52:58.499Z,14.92
2022-10-26T05:55:26.246Z,15.00
2022-10-26T05:57:53.861Z,15.11
2022-10-26T06:00:23.783Z,15.18
2022-10-26T06:03:06.809Z,15.19
2022-10-26T06:05:55.061Z,15.19
2022-10-26T06:08:24.239Z,15.25
2022-10-26T06:10:52.033Z,15.27
2022-10-26T06:13:19.717Z,15.44
2022-10-26T06:16:06.059Z,15.42
2022-10-26T06:18:58.242Z,15.51
2022-10-26T06:21:38.702Z,15.57
2022-10-26T06:24:14.606Z,15.60
2022-10-26T06:27:05.363Z,15.66
2022-10-26T06:29:46.224Z,15.68
2022-10-26T06:32:14.027Z,15.69
2022-10-26T06:34:46.196Z,15.79
2022-10-26T06:37:14.084Z,15.85
2022-10-26T06:39:48.863Z,15.76
2022-10-26T06:42:20.586Z,15.80
2022-10-26T06:44:48.649Z,15.90
2022-10-26T06:47:27.060Z,15.80
2022-10-26T06:50:03.008Z,15.88
2022-10-26T06:52:48.991Z,15.75
2022-10-26T06:55:17.115Z,15.56
2022-10-26T06:57:45.003Z,15.90
2022-10-26T07:00:21.722Z,15.90
2022-10-26T07:02:50.473Z,16.07
2022-10-26T07:05:18.105Z,16.07
2022-10-26T07:07:47.098Z,16.24
2022-10-26T07:10:15.824Z,16.16
2022-10-26T07:12:43.225Z,16.29
2022-10-26T07:15:10.886Z,16.42
2022-10-26T07:17:49.462Z,16.27
2022-10-26T07:20:19.447Z,16.57
2022-10-26T07:22:56.719Z,16.71
2022-10-26T07:25:25.869Z,16.60
2022-10-26T07:27:58.220Z,16.81
2022-10-26T07:30:27.004Z,16.90
2022-10-26T07:33:06.389Z,16.93
2022-10-26T07:35:34.339Z,17.07
2022-10-26T07:38:02.481Z,16.98
2022-10-26T07:40:30.225Z,16.83
2022-10-26T07:42:58.878Z,16.40
2022-10-26T07:45:27.999Z,16.88
2022-10-26T07:47:55.566Z,17.01
2022-10-26T07:50:23.625Z,16.94
2022-10-26T07:52:51.783Z,16.98
2022-10-26T07:55:20.205Z,16.25
2022-10-26T07:57:50.970Z,16.25
2022-10-26T08:00:22.430Z,16.54
2022-10-26T08:02:50.213Z,16.88
2022-10-26T08:05:18.096Z,17.44
2022-10-26T08:07:45.999Z,17.10
2022-10-26T08:10:14.679Z,17.22
2022-10-26T08:12:43.322Z,17.13
2022-10-26T08:15:11.283Z,16.96
2022-10-26T08:17:39.102Z,17.36
2022-10-26T08:20:07.095Z,17.42
2022-10-26T08:22:34.537Z,17.54
2022-10-26T08:25:02.242Z,17.59
2022-10-26T08:27:29.642Z,17.67
2022-10-26T08:29:57.100Z,17.88
2022-10-26T08:32:24.798Z,17.86
2022-10-26T08:34:52.456Z,17.64
2022-10-26T08:37:19.918Z,18.06
2022-10-26T08:39:49.269Z,17.88
2022-10-26T08:42:24.776Z,17.92
2022-10-26T08:44:58.584Z,17.41
2022-10-26T08:47:30.644Z,17.33
2022-10-26T08:50:00.274Z,17.80
2022-10-26T08:52:40.710Z,17.59
2022-10-26T08:55:14.657Z,16.98
2022-10-26T08:57:42.566Z,17.18
2022-10-26T09:00:17.716Z,17.25
2022-10-26T09:02:45.247Z,17.23
2022-10-26T09:05:36.048Z,16.82
2022-10-26T09:08:10.199Z,16.64
2022-10-26T09:11:07.543Z,17.23
2022-10-26T09:14:02.632Z,17.00
2022-10-26T09:16:53.250Z,17.28
2022-10-26T09:19:47.855Z,17.38
2022-10-26T09:22:24.625Z,17.08
2022-10-26T09:24:55.087Z,17.26
2022-10-26T09:27:41.385Z,17.14
2022-10-26T09:30:17.691Z,16.92
2022-10-26T09:32:50.969Z,16.91
2022-10-26T09:35:23.853Z,17.13
2022-10-26T09:38:11.509Z,17.19
2022-10-26T09:40:56.423Z,17.08
2022-10-26T09:43:37.050Z,17.32
2022-10-26T09:46:04.633Z,17.36
2022-10-26T09:48:46.710Z,17.51
2022-10-26T09:51:16.610Z,17.27
2022-10-26T09:53:44.393Z,17.82
2022-10-26T09:56:15.501Z,17.85
2022-10-26T09:58:48.744Z,17.99
2022-10-26T10:01:36.897Z,17.56
2022-10-26T10:04:13.531Z,17.65
2022-10-26T10:06:41.298Z,17.33
2022-10-26T10:09:12.684Z,17.14
2022-10-26T10:12:02.568Z,17.73
2022-10-26T10:14:36.114Z,17.81
2022-10-26T10:17:20.098Z,17.79
2022-10-26T10:19:47.823Z,17.88
2022-10-26T10:22:15.195Z,18.09
2022-10-26T10:24:43.921Z,18.41
2022-10-26T10:27:17.462Z,18.18
2022-10-26T10:29:47.899Z,18.32
2022-10-26T10:32:23.878Z,18.49
2022-10-26T10:34:52.529Z,18.21
2022-10-26T10:37:30.583Z,18.06
2022-10-26T10:39:58.578Z,17.96
2022-10-26T10:42:30.162Z,18.05
2022-10-26T10:44:57.957Z,17.74
2022-10-26T10:47:28.675Z,18.32
2022-10-26T10:50:04.491Z,18.01
2022-10-26T10:52:34.201Z,17.92
2022-10-26T10:55:13.612Z,18.68
2022-10-26T10:57:43.917Z,18.48
2022-10-26T11:00:13.092Z,18.22
2022-10-26T11:03:09.068Z,18.27
2022-10-26T11:05:58.828Z,18.69
2022-10-26T11:08:30.973Z,18.59
2022-10-26T11:11:02.623Z,18.71
2022-10-26T11:13:34.363Z,18.82
2022-10-26T11:16:11.369Z,18.80
2022-10-26T11:19:04.772Z,18.80
2022-10-26T11:21:37.844Z,18.70
2022-10-26T11:24:23.227Z,18.97
2022-10-26T11:26:56.792Z,18.98
2022-10-26T11:29:24.611Z,19.13
2022-10-26T11:32:13.790Z,18.98
2022-10-26T11:34:46.814Z,18.94
2022-10-26T11:37:19.429Z,18.84
2022-10-26T11:40:02.004Z,19.42
2022-10-26T11:42:47.272Z,18.87
2022-10-26T11:45:20.646Z,19.05
2022-10-26T11:48:00.657Z,18.83
2022-10-26T11:50:34.812Z,18.94
2022-10-26T11:53:08.686Z,19.41
2022-10-26T11:55:36.970Z,19.19
2022-10-26T11:58:04.730Z,19.07
2022-10-26T12:00:33.508Z,19.73
2022-10-26T12:03:08.334Z,19.50
2022-10-26T12:05:38.609Z,19.36
2022-10-26T12:08:12.436Z,19.41
2022-10-26T12:10:42.363Z,19.71
2022-10-26T12:13:27.479Z,19.87
2022-10-26T12:16:07.487Z,19.56
2022-10-26T12:18:55.101Z,19.85
2022-10-26T12:21:31.565Z,19.49
2022-10-26T12:24:01.865Z,20.15
2022-10-26T12:26:29.344Z,20.12
2022-10-26T12:29:02.660Z,19.76
2022-10-26T12:31:36.422Z,20.28
2022-10-26T12:34:05.469Z,20.33
2022-10-26T12:36:55.122Z,20.44
2022-10-26T12:39:41.623Z,19.90
2022-10-26T12:42:11.360Z,19.94
2022-10-26T12:44:48.350Z,19.77
2022-10-26T12:47:28.088Z,19.76
2022-10-26T12:50:24.552Z,20.08
2022-10-26T12:53:01.459Z,20.26
2022-10-26T12:55:50.124Z,20.35
2022-10-26T12:58:29.849Z,20.39
2022-10-26T13:01:00.372Z,20.34
2022-10-26T13:03:34.197Z,20.37
2022-10-26T13:06:10.853Z,20.50
2022-10-26T13:08:43.376Z,20.54
2022-10-26T13:11:17.569Z,20.55
2022-10-26T13:13:45.957Z,20.53
2022-10-26T13:16:16.459Z,20.53
2022-10-26T13:18:45.592Z,20.61
2022-10-26T13:21:18.301Z,20.66
2022-10-26T13:23:54.011Z,20.62
2022-10-26T13:26:26.994Z,20.64
2022-10-26T13:28:59.401Z,20.67
2022-10-26T13:31:34.956Z,20.59
2022-10-26T13:36:54.160Z,20.60
2022-10-26T13:39:31.886Z,20.57
2022-10-26T13:42:00.077Z,20.58
2022-10-26T13:44:47.717Z,20.55
2022-10-26T13:47:22.618Z,20.63
2022-10-26T13:49:53.085Z,20.65
2022-10-26T13:52:30.644Z,20.65
2022-10-26T13:55:06.070Z,20.65
2022-10-26T13:57:43.307Z,20.69
2022-10-26T14:00:18.001Z,20.66
2022-10-26T14:02:45.827Z,20.36
2022-10-26T14:05:16.980Z,20.49
2022-10-26T14:07:54.153Z,20.58
2022-10-26T14:10:28.838Z,20.62
2022-10-26T14:12:56.878Z,20.61
2022-10-26T14:15:32.956Z,20.65
2022-10-26T14:18:02.012Z,20.68
2022-10-26T14:20:31.702Z,20.72
2022-10-26T14:22:59.119Z,20.64
2022-10-26T14:25:48.046Z,20.60
2022-10-26T14:28:28.089Z,20.59
2022-10-26T14:31:21.022Z,20.65
2022-10-26T14:33:48.811Z,20.69
2022-10-26T14:36:17.134Z,20.67
2022-10-26T14:38:50.762Z,20.70
2022-10-26T14:41:19.521Z,20.70
2022-10-26T14:43:47.330Z,20.60
2022-10-26T14:46:16.463Z,20.66
2022-10-26T14:48:52.323Z,20.62
2022-10-26T14:51:22.435Z,20.61
2022-10-26T14:53:55.306Z,20.53
2022-10-26T14:56:39.134Z,20.60
2022-10-26T14:59:27.946Z,20.62
2022-10-26T15:01:58.121Z,20.54
2022-10-26T15:04:36.653Z,20.53
2022-10-26T15:07:13.060Z,20.54
2022-10-26T15:09:50.253Z,20.53
2022-10-26T15:12:36.517Z,20.53
2022-10-26T15:15:11.242Z,20.51
2022-10-26T15:17:42.097Z,20.48
2022-10-26T15:20:17.884Z,20.46
2022-10-26T15:23:10.358Z,20.45
2022-10-26T15:25:39.278Z,20.47
2022-10-26T15:28:31.613Z,20.46
2022-10-26T15:31:04.844Z,20.45
2022-10-26T15:33:33.697Z,20.40
2022-10-26T15:36:08.205Z,20.41
2022-10-26T15:38:36.537Z,20.39
2022-10-26T15:41:06.596Z,20.36
2022-10-26T15:43:34.616Z,20.33
2022-10-26T15:46:02.250Z,20.33
2022-10-26T15:48:34.282Z,20.34
2022-10-26T15:51:01.865Z,20.32
2022-10-26T15:53:30.507Z,20.25
2022-10-26T15:55:59.783Z,20.31
2022-10-26T15:58:29.662Z,20.31
2022-10-26T16:00:57.304Z,20.27
2022-10-26T16:03:26.646Z,20.27
2022-10-26T16:05:59.413Z,20.11
2022-10-26T16:08:30.297Z,20.13
2022-10-26T16:10:57.937Z,20.14
2022-10-26T16:13:26.712Z,20.13
2022-10-26T16:15:54.419Z,20.16
2022-10-26T16:18:22.002Z,20.03
2022-10-26T16:20:49.559Z,20.10
2022-10-26T16:23:17.442Z,20.11
2022-10-26T16:25:46.716Z,20.03
2022-10-26T16:28:16.634Z,20.09
2022-10-26T16:30:44.819Z,20.08
2022-10-26T16:33:14.232Z,20.08
2022-10-26T16:35:42.149Z,20.09
2022-10-26T16:38:10.027Z,20.06
2022-10-26T16:40:37.607Z,20.06
2022-10-26T16:43:05.209Z,20.01
2022-10-26T16:45:33.244Z,20.04
2022-10-26T16:48:05.682Z,20.07
2022-10-26T16:50:36.288Z,20.02
2022-10-26T16:53:04.406Z,20.01
2022-10-26T16:55:32.750Z,20.05
2022-10-26T16:58:01.666Z,20.02
2022-10-26T17:00:29.362Z,20.00
2022-10-26T17:02:56.785Z,19.98
2022-10-26T17:05:24.933Z,19.96
2022-10-26T17:07:52.822Z,19.91
2022-10-26T17:10:21.097Z,19.88
2022-10-26T17:12:49.248Z,19.83
2022-10-26T17:15:19.786Z,19.84
2022-10-26T17:17:48.249Z,19.84
2022-10-26T17:20:17.107Z,19.81
2022-10-26T17:22:44.745Z,19.84
2022-10-26T17:25:12.326Z,19.87
2022-10-26T17:27:44.805Z,19.78
2022-10-26T17:30:15.339Z,19.81
2022-10-26T17:32:43.221Z,19.83
2022-10-26T17:35:10.876Z,19.78
2022-10-26T17:37:40.913Z,19.77
2022-10-26T17:40:09.469Z,19.71
2022-10-26T17:42:37.324Z,19.70
2022-10-26T17:45:05.254Z,19.63
2022-10-26T17:47:33.100Z,19.53
2022-10-26T17:50:00.682Z,19.58
2022-10-26T17:52:28.281Z,19.53
2022-10-26T17:54:58.091Z,19.55
2022-10-26T17:57:28.338Z,19.53
2022-10-26T17:59:56.643Z,19.55
2022-10-26T18:02:24.386Z,19.50
2022-10-26T18:04:52.396Z,19.49
2022-10-26T18:07:20.160Z,19.42
2022-10-26T18:09:47.834Z,19.41
2022-10-26T18:12:15.702Z,19.40
2022-10-26T18:14:43.379Z,19.40
2022-10-26T18:17:12.030Z,19.25
2022-10-26T18:19:39.961Z,19.13
2022-10-26T18:22:08.271Z,19.07
2022-10-26T18:24:37.409Z,19.13
2022-10-26T18:27:05.358Z,19.12
2022-10-26T18:29:36.142Z,18.96
2022-10-26T18:32:06.655Z,18.97
2022-10-26T18:34:34.660Z,18.96
2022-10-26T18:37:02.330Z,18.98
2022-10-26T18:39:30.369Z,18.99
2022-10-26T18:41:58.583Z,18.97
2022-10-26T18:44:26.203Z,18.96
2022-10-26T18:46:54.163Z,18.81
2022-10-26T18:49:22.508Z,18.85
2022-10-26T18:51:51.002Z,18.83
2022-10-26T18:54:18.923Z,18.81
2022-10-26T18:56:46.593Z,18.78
2022-10-26T18:59:14.232Z,18.76
2022-10-26T19:01:42.696Z,18.77
2022-10-26T19:04:11.166Z,18.76
2022-10-26T19:06:41.417Z,18.74
2022-10-26T19:09:10.325Z,18.68
2022-10-26T19:11:38.344Z,18.62
2022-10-26T19:14:07.624Z,18.60
2022-10-26T19:16:51.369Z,18.56
2022-10-26T19:19:20.071Z,18.38
2022-10-26T19:21:49.381Z,18.44
2022-10-26T19:24:22.198Z,18.43
2022-10-26T19:26:51.251Z,18.42
2022-10-26T19:29:19.656Z,18.39
2022-10-26T19:31:50.582Z,18.34
2022-10-26T19:34:19.724Z,18.34
2022-10-26T19:36:49.234Z,18.21
2022-10-26T19:39:18.458Z,18.24
2022-10-26T19:41:46.922Z,18.14
2022-10-26T19:44:16.073Z,18.18
2022-10-26T19:46:46.607Z,18.23
2022-10-26T19:49:17.582Z,18.15
2022-10-26T19:51:47.941Z,18.19
2022-10-26T19:54:15.976Z,18.21
2022-10-26T19:56:43.571Z,18.12
2022-10-26T19:59:11.419Z,18.07
2022-10-26T20:01:39.511Z,18.00
2022-10-26T20:04:07.451Z,18.09
2022-10-26T20:06:35.096Z,18.03
2022-10-26T20:09:04.048Z,18.04
2022-10-26T20:11:36.637Z,17.92
2022-10-26T20:14:06.426Z,17.92
2022-10-26T20:16:34.407Z,17.92
2022-10-26T20:19:02.147Z,17.93
2022-10-26T20:21:29.920Z,17.90
2022-10-26T20:23:57.834Z,17.88
2022-10-26T20:26:28.317Z,17.91
2022-10-26T20:28:56.330Z,17.91
2022-10-26T20:31:24.374Z,17.93
2022-10-26T20:33:52.837Z,17.85
2022-10-26T20:36:20.921Z,17.75
2022-10-26T20:38:50.125Z,17.70
2022-10-26T20:41:19.199Z,17.75
2022-10-26T20:43:48.068Z,17.68
2022-10-26T20:46:25.267Z,17.58
2022-10-26T20:48:54.371Z,17.64
2022-10-26T20:51:29.396Z,17.68
2022-10-26T20:54:18.697Z,17.68
2022-10-26T20:56:48.138Z,17.67
2022-10-26T20:59:38.078Z,17.63
2022-10-26T21:02:09.657Z,17.59
2022-10-26T21:04:37.336Z,17.63
2022-10-26T21:07:05.344Z,17.64
2022-10-26T21:09:36.541Z,17.54
2022-10-26T21:12:04.785Z,17.56
2022-10-26T21:14:36.635Z,17.59
2022-10-26T21:17:04.382Z,17.52
2022-10-26T21:19:31.858Z,17.51
2022-10-26T21:21:59.362Z,17.49
2022-10-26T21:24:27.066Z,17.49
2022-10-26T21:26:55.181Z,17.50
2022-10-26T21:29:22.999Z,17.43
2022-10-26T21:31:51.984Z,17.34
2022-10-26T21:34:20.100Z,17.15
2022-10-26T21:36:47.591Z,17.12
2022-10-26T21:39:15.343Z,17.30
2022-10-26T21:41:43.937Z,17.41
2022-10-26T21:44:24.721Z,17.41
2022-10-26T21:46:59.779Z,17.45
2022-10-26T21:49:27.666Z,17.42
2022-10-26T21:51:55.101Z,17.44
2022-10-26T21:54:22.820Z,17.41
2022-10-26T21:56:50.215Z,17.45
2022-10-26T21:59:17.653Z,17.50
2022-10-26T22:01:45.494Z,17.48
2022-10-26T22:04:13.307Z,17.48
2022-10-26T22:06:41.221Z,17.38
2022-10-26T22:09:08.663Z,17.41
2022-10-26T22:11:36.340Z,17.51
2022-10-26T22:14:03.778Z,17.49
2022-10-26T22:16:32.279Z,17.51
2022-10-26T22:19:04.416Z,17.31
2022-10-26T22:21:35.594Z,17.29
2022-10-26T22:24:03.920Z,17.31
2022-10-26T22:26:33.737Z,17.29
2022-10-26T22:29:01.206Z,17.09
2022-10-26T22:34:07.620Z,17.05
2022-10-26T22:36:36.129Z,17.01
2022-10-26T22:39:04.064Z,17.00
2022-10-26T22:41:31.763Z,16.89
2022-10-26T22:43:59.680Z,16.92
2022-10-26T22:46:28.220Z,16.98
2022-10-26T22:49:00.772Z,17.05
2022-10-26T22:51:31.105Z,17.09
2022-10-26T22:54:00.114Z,17.18
2022-10-26T22:56:28.368Z,17.28
2022-10-26T22:58:57.334Z,17.31
2022-10-26T23:01:31.268Z,17.32
2022-10-26T23:04:00.175Z,17.33
2022-10-26T23:06:30.123Z,17.26
2022-10-26T23:08:57.926Z,17.23
2022-10-26T23:11:27.819Z,17.24
2022-10-26T23:13:59.961Z,17.30
2022-10-26T23:16:28.751Z,17.31
2022-10-26T23:18:56.326Z,17.32
2022-10-26T23:23:57.999Z,17.32
2022-10-26T23:26:25.662Z,17.28
2022-10-26T23:28:53.066Z,17.31
2022-10-26T23:31:22.595Z,17.20
2022-10-26T23:33:50.577Z,17.20
2022-10-26T23:36:18.064Z,17.18
2022-10-26T23:38:46.238Z,17.09
2022-10-26T23:41:13.935Z,17.12
2022-10-26T23:43:41.683Z,17.16
2022-10-26T23:46:09.610Z,17.20
2022-10-26T23:48:37.095Z,17.14
2022-10-26T23:51:04.537Z,17.21
2022-10-26T23:53:32.615Z,17.11
2022-10-26T23:56:00.021Z,17.04
2022-10-26T23:58:27.452Z,17.01
